sensor_id;sensor_type;location;lat;lon;timestamp;P1;durP1;ratioP1;P2;durP2;ratioP2
19059;SDS011;9663;48.996;8.334;2024-02-21T00:02:16;6.03;;;2.35;;
19059;SDS011;9663;48.996;8.334;2024-02-21T00:04:43;5.32;;;2.17;;
19059;SDS011;9663;48.996;8.334;2024-02-21T00:07:08;6.20;;;2.15;;
19059;SDS011;9663;48.996;8.334;2024-02-21T00:09:34;5.57;;;2.15;;
19059;SDS011;9663;48.996;8.334;2024-02-21T00:12:00;5.55;;;2.00;;
19059;SDS011;9663;48.996;8.334;2024-02-21T00:14:26;4.50;;;1.90;;
19059;SDS011;9663;48.996;8.334;2024-02-21T00:16:51;5.78;;;1.95;;
19059;SDS011;9663;48.996;8.334;2024-02-21T00:19:17;4.20;;;2.10;;
19059;SDS011;9663;48.996;8.334;2024-02-21T00:21:43;5.53;;;2.00;;
19059;SDS011;9663;48.996;8.334;2024-02-21T00:24:08;4.70;;;1.90;;
19059;SDS011;9663;48.996;8.334;2024-02-21T00:26:34;5.28;;;2.03;;
19059;SDS011;9663;48.996;8.334;2024-02-21T00:29:00;5.30;;;2.15;;
19059;SDS011;9663;48.996;8.334;2024-02-21T00:31:25;5.45;;;1.80;;
19059;SDS011;9663;48.996;8.334;2024-02-21T00:33:51;4.68;;;1.65;;
19059;SDS011;9663;48.996;8.334;2024-02-21T00:36:17;5.65;;;1.70;;
19059;SDS011;9663;48.996;8.334;2024-02-21T00:38:42;4.57;;;1.70;;
19059;SDS011;9663;48.996;8.334;2024-02-21T00:41:08;4.40;;;1.95;;
19059;SDS011;9663;48.996;8.334;2024-02-21T00:43:34;6.25;;;2.00;;
19059;SDS011;9663;48.996;8.334;2024-02-21T00:45:59;5.10;;;1.90;;
19059;SDS011;9663;48.996;8.334;2024-02-21T00:48:25;5.80;;;1.73;;
19059;SDS011;9663;48.996;8.334;2024-02-21T00:50:51;4.70;;;1.92;;
19059;SDS011;9663;48.996;8.334;2024-02-21T00:53:17;4.63;;;1.60;;
19059;SDS011;9663;48.996;8.334;2024-02-21T00:55:42;6.07;;;1.90;;
19059;SDS011;9663;48.996;8.334;2024-02-21T00:58:08;3.88;;;1.50;;
19059;SDS011;9663;48.996;8.334;2024-02-21T01:00:34;5.22;;;1.67;;
19059;SDS011;9663;48.996;8.334;2024-02-21T01:03:00;5.18;;;1.67;;
19059;SDS011;9663;48.996;8.334;2024-02-21T01:05:25;6.50;;;1.60;;
19059;SDS011;9663;48.996;8.334;2024-02-21T01:07:53;4.40;;;1.52;;
19059;SDS011;9663;48.996;8.334;2024-02-21T01:10:18;7.53;;;1.83;;
19059;SDS011;9663;48.996;8.334;2024-02-21T01:12:44;5.63;;;1.75;;
19059;SDS011;9663;48.996;8.334;2024-02-21T01:15:10;4.47;;;1.65;;
19059;SDS011;9663;48.996;8.334;2024-02-21T01:17:36;5.43;;;1.70;;
19059;SDS011;9663;48.996;8.334;2024-02-21T01:20:03;4.53;;;1.67;;
19059;SDS011;9663;48.996;8.334;2024-02-21T01:22:30;5.38;;;1.80;;
19059;SDS011;9663;48.996;8.334;2024-02-21T01:24:56;5.22;;;1.58;;
19059;SDS011;9663;48.996;8.334;2024-02-21T01:27:22;5.45;;;1.50;;
19059;SDS011;9663;48.996;8.334;2024-02-21T01:29:47;5.60;;;1.73;;
19059;SDS011;9663;48.996;8.334;2024-02-21T01:32:14;5.30;;;1.70;;
19059;SDS011;9663;48.996;8.334;2024-02-21T01:34:41;3.90;;;1.40;;
19059;SDS011;9663;48.996;8.334;2024-02-21T01:37:06;4.93;;;1.63;;
19059;SDS011;9663;48.996;8.334;2024-02-21T01:39:32;4.18;;;1.45;;
19059;SDS011;9663;48.996;8.334;2024-02-21T01:41:59;3.60;;;1.38;;
19059;SDS011;9663;48.996;8.334;2024-02-21T01:44:25;5.38;;;1.70;;
19059;SDS011;9663;48.996;8.334;2024-02-21T01:46:51;4.90;;;1.73;;
19059;SDS011;9663;48.996;8.334;2024-02-21T01:49:18;4.10;;;1.60;;
19059;SDS011;9663;48.996;8.334;2024-02-21T01:51:45;4.90;;;1.55;;
19059;SDS011;9663;48.996;8.334;2024-02-21T01:54:13;4.28;;;1.48;;
19059;SDS011;9663;48.996;8.334;2024-02-21T01:56:41;4.97;;;1.60;;
19059;SDS011;9663;48.996;8.334;2024-02-21T01:59:08;5.90;;;1.90;;
19059;SDS011;9663;48.996;8.334;2024-02-21T02:01:34;4.40;;;1.75;;
19059;SDS011;9663;48.996;8.334;2024-02-21T02:04:00;4.82;;;1.50;;
19059;SDS011;9663;48.996;8.334;2024-02-21T02:06:26;4.47;;;1.67;;
19059;SDS011;9663;48.996;8.334;2024-02-21T02:08:52;3.92;;;1.60;;
19059;SDS011;9663;48.996;8.334;2024-02-21T02:11:19;4.25;;;1.65;;
19059;SDS011;9663;48.996;8.334;2024-02-21T02:13:45;4.38;;;1.60;;
19059;SDS011;9663;48.996;8.334;2024-02-21T02:16:10;3.92;;;1.60;;
19059;SDS011;9663;48.996;8.334;2024-02-21T02:18:36;4.75;;;1.40;;
19059;SDS011;9663;48.996;8.334;2024-02-21T02:21:03;4.10;;;1.52;;
19059;SDS011;9663;48.996;8.334;2024-02-21T02:23:36;4.03;;;1.38;;
19059;SDS011;9663;48.996;8.334;2024-02-21T02:26:01;4.20;;;1.35;;
19059;SDS011;9663;48.996;8.334;2024-02-21T02:28:27;4.47;;;1.70;;
19059;SDS011;9663;48.996;8.334;2024-02-21T02:30:53;5.50;;;1.50;;
19059;SDS011;9663;48.996;8.334;2024-02-21T02:33:19;3.72;;;1.45;;
19059;SDS011;9663;48.996;8.334;2024-02-21T02:35:45;4.63;;;1.40;;
19059;SDS011;9663;48.996;8.334;2024-02-21T02:38:11;4.90;;;1.67;;
19059;SDS011;9663;48.996;8.334;2024-02-21T02:40:38;7.28;;;1.60;;
19059;SDS011;9663;48.996;8.334;2024-02-21T02:43:05;5.25;;;1.60;;
19059;SDS011;9663;48.996;8.334;2024-02-21T02:45:31;5.70;;;1.48;;
19059;SDS011;9663;48.996;8.334;2024-02-21T02:47:57;4.40;;;1.60;;
19059;SDS011;9663;48.996;8.334;2024-02-21T02:50:24;4.82;;;1.60;;
19059;SDS011;9663;48.996;8.334;2024-02-21T02:52:51;4.45;;;1.70;;
19059;SDS011;9663;48.996;8.334;2024-02-21T02:55:17;5.35;;;1.58;;
19059;SDS011;9663;48.996;8.334;2024-02-21T02:57:43;4.20;;;1.63;;
19059;SDS011;9663;48.996;8.334;2024-02-21T03:00:12;5.35;;;1.75;;
19059;SDS011;9663;48.996;8.334;2024-02-21T03:02:40;4.88;;;1.55;;
19059;SDS011;9663;48.996;8.334;2024-02-21T03:05:14;4.93;;;1.63;;
19059;SDS011;9663;48.996;8.334;2024-02-21T03:07:44;4.88;;;1.60;;
19059;SDS011;9663;48.996;8.334;2024-02-21T03:10:11;4.75;;;1.63;;
19059;SDS011;9663;48.996;8.334;2024-02-21T03:12:38;4.13;;;1.60;;
19059;SDS011;9663;48.996;8.334;2024-02-21T03:15:04;4.88;;;1.52;;
19059;SDS011;9663;48.996;8.334;2024-02-21T03:17:31;5.32;;;1.70;;
19059;SDS011;9663;48.996;8.334;2024-02-21T03:19:59;6.50;;;1.67;;
19059;SDS011;9663;48.996;8.334;2024-02-21T03:22:25;3.63;;;1.40;;
19059;SDS011;9663;48.996;8.334;2024-02-21T03:24:51;3.47;;;1.30;;
19059;SDS011;9663;48.996;8.334;2024-02-21T03:27:17;6.03;;;1.40;;
19059;SDS011;9663;48.996;8.334;2024-02-21T03:29:42;4.20;;;1.48;;
19059;SDS011;9663;48.996;8.334;2024-02-21T03:32:08;4.57;;;1.63;;
19059;SDS011;9663;48.996;8.334;2024-02-21T03:34:34;3.70;;;1.40;;
19059;SDS011;9663;48.996;8.334;2024-02-21T03:37:00;4.50;;;1.50;;
19059;SDS011;9663;48.996;8.334;2024-02-21T03:39:26;4.57;;;1.58;;
19059;SDS011;9663;48.996;8.334;2024-02-21T03:41:51;3.88;;;1.45;;
19059;SDS011;9663;48.996;8.334;2024-02-21T03:44:17;5.75;;;1.90;;
19059;SDS011;9663;48.996;8.334;2024-02-21T03:46:43;6.10;;;1.90;;
19059;SDS011;9663;48.996;8.334;2024-02-21T03:49:08;6.38;;;1.73;;
19059;SDS011;9663;48.996;8.334;2024-02-21T03:51:34;3.55;;;1.50;;
19059;SDS011;9663;48.996;8.334;2024-02-21T03:54:00;3.58;;;1.35;;
19059;SDS011;9663;48.996;8.334;2024-02-21T03:56:26;4.70;;;1.42;;
19059;SDS011;9663;48.996;8.334;2024-02-21T03:58:51;5.15;;;1.55;;
19059;SDS011;9663;48.996;8.334;2024-02-21T04:01:17;7.05;;;1.60;;
19059;SDS011;9663;48.996;8.334;2024-02-21T04:03:43;3.58;;;1.17;;
19059;SDS011;9663;48.996;8.334;2024-02-21T04:06:09;4.20;;;1.55;;
19059;SDS011;9663;48.996;8.334;2024-02-21T04:08:35;4.88;;;1.77;;
19059;SDS011;9663;48.996;8.334;2024-02-21T04:11:00;4.30;;;1.60;;
19059;SDS011;9663;48.996;8.334;2024-02-21T04:13:26;5.45;;;1.50;;
19059;SDS011;9663;48.996;8.334;2024-02-21T04:15:52;4.00;;;1.35;;
19059;SDS011;9663;48.996;8.334;2024-02-21T04:18:18;4.05;;;1.58;;
19059;SDS011;9663;48.996;8.334;2024-02-21T04:20:44;3.92;;;1.50;;
19059;SDS011;9663;48.996;8.334;2024-02-21T04:23:10;7.50;;;1.80;;
19059;SDS011;9663;48.996;8.334;2024-02-21T04:25:36;5.13;;;1.98;;
19059;SDS011;9663;48.996;8.334;2024-02-21T04:28:02;3.75;;;1.67;;
19059;SDS011;9663;48.996;8.334;2024-02-21T04:30:28;3.50;;;1.42;;
19059;SDS011;9663;48.996;8.334;2024-02-21T04:32:54;5.70;;;1.70;;
19059;SDS011;9663;48.996;8.334;2024-02-21T04:35:19;4.65;;;1.92;;
19059;SDS011;9663;48.996;8.334;2024-02-21T04:37:45;5.32;;;2.08;;
19059;SDS011;9663;48.996;8.334;2024-02-21T04:40:11;5.43;;;1.70;;
19059;SDS011;9663;48.996;8.334;2024-02-21T04:42:38;6.43;;;1.70;;
19059;SDS011;9663;48.996;8.334;2024-02-21T04:45:04;4.45;;;1.73;;
19059;SDS011;9663;48.996;8.334;2024-02-21T04:47:31;5.07;;;1.90;;
19059;SDS011;9663;48.996;8.334;2024-02-21T04:50:00;3.70;;;1.50;;
19059;SDS011;9663;48.996;8.334;2024-02-21T04:52:25;5.10;;;1.80;;
19059;SDS011;9663;48.996;8.334;2024-02-21T04:54:51;4.75;;;1.50;;
19059;SDS011;9663;48.996;8.334;2024-02-21T04:57:17;4.20;;;1.75;;
19059;SDS011;9663;48.996;8.334;2024-02-21T04:59:46;6.30;;;1.63;;
19059;SDS011;9663;48.996;8.334;2024-02-21T05:02:14;4.28;;;1.50;;
19059;SDS011;9663;48.996;8.334;2024-02-21T05:04:41;5.97;;;1.85;;
19059;SDS011;9663;48.996;8.334;2024-02-21T05:07:09;4.78;;;1.60;;
19059;SDS011;9663;48.996;8.334;2024-02-21T05:09:36;4.72;;;1.70;;
19059;SDS011;9663;48.996;8.334;2024-02-21T05:12:02;3.90;;;1.80;;
19059;SDS011;9663;48.996;8.334;2024-02-21T05:14:28;5.40;;;1.63;;
19059;SDS011;9663;48.996;8.334;2024-02-21T05:16:54;4.95;;;1.77;;
19059;SDS011;9663;48.996;8.334;2024-02-21T05:19:20;4.63;;;1.77;;
19059;SDS011;9663;48.996;8.334;2024-02-21T05:21:46;5.78;;;1.65;;
19059;SDS011;9663;48.996;8.334;2024-02-21T05:24:11;5.32;;;1.70;;
19059;SDS011;9663;48.996;8.334;2024-02-21T05:26:37;3.88;;;1.55;;
19059;SDS011;9663;48.996;8.334;2024-02-21T05:29:03;3.67;;;1.38;;
19059;SDS011;9663;48.996;8.334;2024-02-21T05:31:42;3.65;;;1.58;;
19059;SDS011;9663;48.996;8.334;2024-02-21T05:34:18;3.70;;;1.38;;
19059;SDS011;9663;48.996;8.334;2024-02-21T05:36:44;3.67;;;1.33;;
19059;SDS011;9663;48.996;8.334;2024-02-21T05:39:11;4.13;;;1.50;;
19059;SDS011;9663;48.996;8.334;2024-02-21T05:41:37;4.32;;;1.60;;
19059;SDS011;9663;48.996;8.334;2024-02-21T05:44:03;5.00;;;1.73;;
19059;SDS011;9663;48.996;8.334;2024-02-21T05:46:29;4.00;;;1.60;;
19059;SDS011;9663;48.996;8.334;2024-02-21T05:48:54;3.58;;;1.50;;
19059;SDS011;9663;48.996;8.334;2024-02-21T05:51:20;4.32;;;1.50;;
19059;SDS011;9663;48.996;8.334;2024-02-21T05:53:46;4.53;;;1.50;;
19059;SDS011;9663;48.996;8.334;2024-02-21T05:56:12;4.45;;;1.40;;
19059;SDS011;9663;48.996;8.334;2024-02-21T05:58:39;4.65;;;1.58;;
19059;SDS011;9663;48.996;8.334;2024-02-21T06:01:05;4.53;;;1.52;;
19059;SDS011;9663;48.996;8.334;2024-02-21T06:03:34;4.75;;;1.80;;
19059;SDS011;9663;48.996;8.334;2024-02-21T06:06:03;4.13;;;1.58;;
19059;SDS011;9663;48.996;8.334;2024-02-21T06:08:30;4.53;;;1.50;;
19059;SDS011;9663;48.996;8.334;2024-02-21T06:10:56;5.45;;;1.40;;
19059;SDS011;9663;48.996;8.334;2024-02-21T06:13:22;6.50;;;1.80;;
19059;SDS011;9663;48.996;8.334;2024-02-21T06:15:49;6.63;;;1.80;;
19059;SDS011;9663;48.996;8.334;2024-02-21T06:18:16;4.57;;;1.70;;
19059;SDS011;9663;48.996;8.334;2024-02-21T06:20:43;3.90;;;1.50;;
19059;SDS011;9663;48.996;8.334;2024-02-21T06:23:08;4.35;;;1.67;;
19059;SDS011;9663;48.996;8.334;2024-02-21T06:25:34;3.85;;;1.50;;
19059;SDS011;9663;48.996;8.334;2024-02-21T06:28:00;4.78;;;1.60;;
19059;SDS011;9663;48.996;8.334;2024-02-21T06:30:26;4.75;;;1.30;;
19059;SDS011;9663;48.996;8.334;2024-02-21T06:32:52;4.25;;;1.42;;
19059;SDS011;9663;48.996;8.334;2024-02-21T06:35:20;5.10;;;1.60;;
19059;SDS011;9663;48.996;8.334;2024-02-21T06:37:46;4.47;;;1.75;;
19059;SDS011;9663;48.996;8.334;2024-02-21T06:40:16;3.83;;;1.42;;
19059;SDS011;9663;48.996;8.334;2024-02-21T06:42:46;4.75;;;1.55;;
19059;SDS011;9663;48.996;8.334;2024-02-21T06:45:12;4.28;;;1.60;;
19059;SDS011;9663;48.996;8.334;2024-02-21T06:47:38;4.50;;;1.80;;
19059;SDS011;9663;48.996;8.334;2024-02-21T06:50:03;4.15;;;1.40;;
19059;SDS011;9663;48.996;8.334;2024-02-21T06:52:30;4.90;;;1.45;;
19059;SDS011;9663;48.996;8.334;2024-02-21T06:54:56;3.90;;;1.55;;
19059;SDS011;9663;48.996;8.334;2024-02-21T06:57:22;4.15;;;1.45;;
19059;SDS011;9663;48.996;8.334;2024-02-21T06:59:48;4.97;;;1.75;;
19059;SDS011;9663;48.996;8.334;2024-02-21T07:02:13;4.60;;;1.70;;
19059;SDS011;9663;48.996;8.334;2024-02-21T07:04:39;4.70;;;1.70;;
19059;SDS011;9663;48.996;8.334;2024-02-21T07:07:05;4.18;;;1.35;;
19059;SDS011;9663;48.996;8.334;2024-02-21T07:09:30;5.03;;;1.70;;
19059;SDS011;9663;48.996;8.334;2024-02-21T07:11:59;4.90;;;1.67;;
19059;SDS011;9663;48.996;8.334;2024-02-21T07:14:25;4.68;;;1.67;;
19059;SDS011;9663;48.996;8.334;2024-02-21T07:16:51;4.68;;;1.50;;
19059;SDS011;9663;48.996;8.334;2024-02-21T07:19:16;4.90;;;1.38;;
19059;SDS011;9663;48.996;8.334;2024-02-21T07:21:42;4.60;;;1.65;;
19059;SDS011;9663;48.996;8.334;2024-02-21T07:24:08;5.10;;;1.77;;
19059;SDS011;9663;48.996;8.334;2024-02-21T07:26:34;5.00;;;1.60;;
19059;SDS011;9663;48.996;8.334;2024-02-21T07:29:00;6.05;;;1.48;;
19059;SDS011;9663;48.996;8.334;2024-02-21T07:31:26;5.90;;;1.85;;
19059;SDS011;9663;48.996;8.334;2024-02-21T07:33:51;3.38;;;1.40;;
19059;SDS011;9663;48.996;8.334;2024-02-21T07:36:28;3.53;;;1.50;;
19059;SDS011;9663;48.996;8.334;2024-02-21T07:38:58;4.15;;;1.42;;
19059;SDS011;9663;48.996;8.334;2024-02-21T07:41:24;5.40;;;1.50;;
19059;SDS011;9663;48.996;8.334;2024-02-21T07:43:51;4.72;;;1.55;;
19059;SDS011;9663;48.996;8.334;2024-02-21T07:46:17;4.45;;;1.63;;
19059;SDS011;9663;48.996;8.334;2024-02-21T07:48:45;5.38;;;2.08;;
19059;SDS011;9663;48.996;8.334;2024-02-21T07:51:11;4.60;;;1.65;;
19059;SDS011;9663;48.996;8.334;2024-02-21T07:53:38;5.43;;;1.73;;
19059;SDS011;9663;48.996;8.334;2024-02-21T07:56:09;3.28;;;1.30;;
19059;SDS011;9663;48.996;8.334;2024-02-21T07:58:37;4.45;;;1.63;;
19059;SDS011;9663;48.996;8.334;2024-02-21T08:01:03;6.60;;;1.80;;
19059;SDS011;9663;48.996;8.334;2024-02-21T08:03:29;4.38;;;1.58;;
19059;SDS011;9663;48.996;8.334;2024-02-21T08:05:54;3.60;;;1.48;;
19059;SDS011;9663;48.996;8.334;2024-02-21T08:08:20;4.32;;;1.80;;
19059;SDS011;9663;48.996;8.334;2024-02-21T08:10:47;4.10;;;1.70;;
19059;SDS011;9663;48.996;8.334;2024-02-21T08:13:14;3.60;;;1.40;;
19059;SDS011;9663;48.996;8.334;2024-02-21T08:15:39;3.78;;;1.42;;
19059;SDS011;9663;48.996;8.334;2024-02-21T08:18:07;3.78;;;1.40;;
19059;SDS011;9663;48.996;8.334;2024-02-21T08:20:33;4.53;;;1.70;;
19059;SDS011;9663;48.996;8.334;2024-02-21T08:22:59;4.43;;;1.65;;
19059;SDS011;9663;48.996;8.334;2024-02-21T08:25:25;4.35;;;1.30;;
19059;SDS011;9663;48.996;8.334;2024-02-21T08:27:51;3.70;;;1.50;;
19059;SDS011;9663;48.996;8.334;2024-02-21T08:30:16;3.85;;;1.40;;
19059;SDS011;9663;48.996;8.334;2024-02-21T08:32:43;3.70;;;1.48;;
19059;SDS011;9663;48.996;8.334;2024-02-21T08:35:09;4.75;;;1.60;;
19059;SDS011;9663;48.996;8.334;2024-02-21T08:37:34;4.32;;;1.80;;
19059;SDS011;9663;48.996;8.334;2024-02-21T08:40:00;4.22;;;1.63;;
19059;SDS011;9663;48.996;8.334;2024-02-21T08:42:33;4.53;;;1.70;;
19059;SDS011;9663;48.996;8.334;2024-02-21T08:45:04;5.75;;;2.00;;
19059;SDS011;9663;48.996;8.334;2024-02-21T08:47:30;3.75;;;1.30;;
19059;SDS011;9663;48.996;8.334;2024-02-21T08:49:56;4.57;;;1.70;;
19059;SDS011;9663;48.996;8.334;2024-02-21T08:52:21;3.80;;;1.52;;
19059;SDS011;9663;48.996;8.334;2024-02-21T08:54:47;5.45;;;1.70;;
19059;SDS011;9663;48.996;8.334;2024-02-21T08:57:12;5.20;;;1.77;;
19059;SDS011;9663;48.996;8.334;2024-02-21T08:59:39;3.90;;;1.60;;
19059;SDS011;9663;48.996;8.334;2024-02-21T09:02:05;3.30;;;1.20;;
19059;SDS011;9663;48.996;8.334;2024-02-21T09:04:32;5.38;;;1.60;;
19059;SDS011;9663;48.996;8.334;2024-02-21T09:06:58;4.30;;;1.50;;
19059;SDS011;9663;48.996;8.334;2024-02-21T09:09:24;4.78;;;1.40;;
19059;SDS011;9663;48.996;8.334;2024-02-21T09:11:50;5.97;;;1.70;;
19059;SDS011;9663;48.996;8.334;2024-02-21T09:14:16;3.72;;;1.30;;
19059;SDS011;9663;48.996;8.334;2024-02-21T09:16:42;5.78;;;1.45;;
19059;SDS011;9663;48.996;8.334;2024-02-21T09:19:09;4.20;;;1.30;;
19059;SDS011;9663;48.996;8.334;2024-02-21T09:21:36;3.80;;;1.58;;
19059;SDS011;9663;48.996;8.334;2024-02-21T09:24:03;6.35;;;1.90;;
19059;SDS011;9663;48.996;8.334;2024-02-21T09:26:30;5.32;;;1.90;;
19059;SDS011;9663;48.996;8.334;2024-02-21T09:28:56;4.45;;;1.50;;
19059;SDS011;9663;48.996;8.334;2024-02-21T09:31:21;4.93;;;1.83;;
19059;SDS011;9663;48.996;8.334;2024-02-21T09:33:47;6.07;;;1.80;;
19059;SDS011;9663;48.996;8.334;2024-02-21T09:36:14;4.40;;;1.63;;
19059;SDS011;9663;48.996;8.334;2024-02-21T09:38:40;4.50;;;1.42;;
19059;SDS011;9663;48.996;8.334;2024-02-21T09:41:16;4.88;;;1.42;;
19059;SDS011;9663;48.996;8.334;2024-02-21T09:43:55;4.82;;;1.65;;
19059;SDS011;9663;48.996;8.334;2024-02-21T09:46:24;3.80;;;1.40;;
19059;SDS011;9663;48.996;8.334;2024-02-21T09:51:57;5.40;;;1.90;;
19059;SDS011;9663;48.996;8.334;2024-02-21T09:54:25;4.55;;;1.50;;
19059;SDS011;9663;48.996;8.334;2024-02-21T09:56:55;4.72;;;1.40;;
19059;SDS011;9663;48.996;8.334;2024-02-21T09:59:22;4.85;;;1.77;;
19059;SDS011;9663;48.996;8.334;2024-02-21T10:01:49;5.68;;;1.50;;
19059;SDS011;9663;48.996;8.334;2024-02-21T10:04:16;3.72;;;1.20;;
19059;SDS011;9663;48.996;8.334;2024-02-21T10:06:41;5.40;;;1.70;;
19059;SDS011;9663;48.996;8.334;2024-02-21T10:09:08;3.13;;;1.40;;
19059;SDS011;9663;48.996;8.334;2024-02-21T10:11:33;4.80;;;1.70;;
19059;SDS011;9663;48.996;8.334;2024-02-21T10:14:05;4.75;;;1.50;;
19059;SDS011;9663;48.996;8.334;2024-02-21T10:16:32;5.20;;;1.97;;
19059;SDS011;9663;48.996;8.334;2024-02-21T10:18:59;4.55;;;1.50;;
19059;SDS011;9663;48.996;8.334;2024-02-21T10:21:25;4.50;;;1.35;;
19059;SDS011;9663;48.996;8.334;2024-02-21T10:23:51;5.70;;;1.90;;
19059;SDS011;9663;48.996;8.334;2024-02-21T10:26:17;5.28;;;1.67;;
19059;SDS011;9663;48.996;8.334;2024-02-21T10:28:45;6.75;;;2.15;;
19059;SDS011;9663;48.996;8.334;2024-02-21T10:31:23;4.25;;;1.40;;
19059;SDS011;9663;48.996;8.334;2024-02-21T10:33:57;4.53;;;1.30;;
19059;SDS011;9663;48.996;8.334;2024-02-21T10:36:30;3.85;;;1.25;;
19059;SDS011;9663;48.996;8.334;2024-02-21T10:38:56;5.30;;;1.63;;
19059;SDS011;9663;48.996;8.334;2024-02-21T10:41:22;4.07;;;1.52;;
19059;SDS011;9663;48.996;8.334;2024-02-21T10:43:53;3.83;;;1.38;;
19059;SDS011;9663;48.996;8.334;2024-02-21T10:46:20;3.80;;;1.25;;
19059;SDS011;9663;48.996;8.334;2024-02-21T10:48:48;3.55;;;1.30;;
19059;SDS011;9663;48.996;8.334;2024-02-21T10:51:53;3.08;;;1.20;;
19059;SDS011;9663;48.996;8.334;2024-02-21T10:55:16;2.83;;;1.30;;
19059;SDS011;9663;48.996;8.334;2024-02-21T10:57:41;3.60;;;1.35;;
19059;SDS011;9663;48.996;8.334;2024-02-21T11:00:08;4.63;;;1.52;;
19059;SDS011;9663;48.996;8.334;2024-02-21T11:02:37;4.13;;;1.33;;
19059;SDS011;9663;48.996;8.334;2024-02-21T11:05:05;3.85;;;1.60;;
19059;SDS011;9663;48.996;8.334;2024-02-21T11:07:32;4.55;;;1.50;;
19059;SDS011;9663;48.996;8.334;2024-02-21T11:10:02;3.67;;;1.30;;
19059;SDS011;9663;48.996;8.334;2024-02-21T11:12:32;4.40;;;1.40;;
19059;SDS011;9663;48.996;8.334;2024-02-21T11:15:07;7.50;;;1.60;;
19059;SDS011;9663;48.996;8.334;2024-02-21T11:17:33;3.38;;;1.10;;
19059;SDS011;9663;48.996;8.334;2024-02-21T11:20:10;5.75;;;1.55;;
19059;SDS011;9663;48.996;8.334;2024-02-21T11:22:42;2.65;;;1.02;;
19059;SDS011;9663;48.996;8.334;2024-02-21T11:25:08;3.83;;;1.42;;
19059;SDS011;9663;48.996;8.334;2024-02-21T11:27:37;3.22;;;1.10;;
19059;SDS011;9663;48.996;8.334;2024-02-21T11:30:04;3.60;;;1.17;;
19059;SDS011;9663;48.996;8.334;2024-02-21T11:32:31;2.55;;;0.93;;
19059;SDS011;9663;48.996;8.334;2024-02-21T11:34:57;4.70;;;1.27;;
19059;SDS011;9663;48.996;8.334;2024-02-21T11:37:27;4.68;;;1.25;;
19059;SDS011;9663;48.996;8.334;2024-02-21T11:39:57;4.20;;;1.50;;
19059;SDS011;9663;48.996;8.334;2024-02-21T11:42:24;5.28;;;1.35;;
19059;SDS011;9663;48.996;8.334;2024-02-21T11:44:51;5.95;;;1.40;;
19059;SDS011;9663;48.996;8.334;2024-02-21T11:47:18;7.25;;;1.48;;
19059;SDS011;9663;48.996;8.334;2024-02-21T11:49:47;4.75;;;1.20;;
19059;SDS011;9663;48.996;8.334;2024-02-21T11:52:23;3.63;;;1.17;;
19059;SDS011;9663;48.996;8.334;2024-02-21T11:54:53;5.07;;;1.55;;
19059;SDS011;9663;48.996;8.334;2024-02-21T11:57:21;3.70;;;1.00;;
19059;SDS011;9663;48.996;8.334;2024-02-21T11:59:47;4.60;;;1.20;;
19059;SDS011;9663;48.996;8.334;2024-02-21T12:02:14;3.33;;;1.15;;
19059;SDS011;9663;48.996;8.334;2024-02-21T12:04:41;3.83;;;1.10;;
19059;SDS011;9663;48.996;8.334;2024-02-21T12:07:08;4.18;;;1.25;;
19059;SDS011;9663;48.996;8.334;2024-02-21T12:09:34;3.70;;;1.10;;
19059;SDS011;9663;48.996;8.334;2024-02-21T12:12:01;2.75;;;1.02;;
19059;SDS011;9663;48.996;8.334;2024-02-21T12:14:30;4.72;;;1.35;;
19059;SDS011;9663;48.996;8.334;2024-02-21T12:16:58;3.58;;;1.30;;
19059;SDS011;9663;48.996;8.334;2024-02-21T12:19:24;3.50;;;1.20;;
19059;SDS011;9663;48.996;8.334;2024-02-21T12:21:50;4.70;;;1.38;;
19059;SDS011;9663;48.996;8.334;2024-02-21T12:24:23;3.13;;;1.10;;
19059;SDS011;9663;48.996;8.334;2024-02-21T12:26:52;4.53;;;1.50;;
19059;SDS011;9663;48.996;8.334;2024-02-21T12:29:19;4.22;;;1.50;;
19059;SDS011;9663;48.996;8.334;2024-02-21T12:31:46;3.42;;;1.38;;
19059;SDS011;9663;48.996;8.334;2024-02-21T12:34:13;3.63;;;1.20;;
19059;SDS011;9663;48.996;8.334;2024-02-21T12:36:41;3.80;;;1.08;;
19059;SDS011;9663;48.996;8.334;2024-02-21T12:39:08;4.60;;;1.40;;
19059;SDS011;9663;48.996;8.334;2024-02-21T12:41:35;4.43;;;1.48;;
19059;SDS011;9663;48.996;8.334;2024-02-21T12:44:04;5.22;;;1.60;;
19059;SDS011;9663;48.996;8.334;2024-02-21T12:46:32;3.95;;;1.40;;
19059;SDS011;9663;48.996;8.334;2024-02-21T12:48:59;4.07;;;1.40;;
19059;SDS011;9663;48.996;8.334;2024-02-21T12:51:25;6.32;;;1.40;;
19059;SDS011;9663;48.996;8.334;2024-02-21T12:53:51;3.42;;;1.13;;
19059;SDS011;9663;48.996;8.334;2024-02-21T12:56:16;3.42;;;1.10;;
19059;SDS011;9663;48.996;8.334;2024-02-21T12:58:42;4.53;;;1.20;;
19059;SDS011;9663;48.996;8.334;2024-02-21T13:01:08;5.03;;;1.30;;
19059;SDS011;9663;48.996;8.334;2024-02-21T13:03:34;3.22;;;1.20;;
19059;SDS011;9663;48.996;8.334;2024-02-21T13:05:59;2.83;;;1.00;;
19059;SDS011;9663;48.996;8.334;2024-02-21T13:08:25;3.47;;;0.90;;
19059;SDS011;9663;48.996;8.334;2024-02-21T13:10:51;3.75;;;1.23;;
19059;SDS011;9663;48.996;8.334;2024-02-21T13:13:16;3.58;;;1.15;;
19059;SDS011;9663;48.996;8.334;2024-02-21T13:15:42;2.83;;;1.10;;
19059;SDS011;9663;48.996;8.334;2024-02-21T13:18:08;3.35;;;1.10;;
19059;SDS011;9663;48.996;8.334;2024-02-21T13:20:34;4.05;;;1.20;;
19059;SDS011;9663;48.996;8.334;2024-02-21T13:23:01;4.22;;;1.10;;
19059;SDS011;9663;48.996;8.334;2024-02-21T13:25:27;3.92;;;1.15;;
19059;SDS011;9663;48.996;8.334;2024-02-21T13:27:53;4.10;;;1.27;;
19059;SDS011;9663;48.996;8.334;2024-02-21T13:30:19;2.80;;;0.93;;
19059;SDS011;9663;48.996;8.334;2024-02-21T13:32:44;3.42;;;1.20;;
19059;SDS011;9663;48.996;8.334;2024-02-21T13:35:13;4.13;;;1.20;;
19059;SDS011;9663;48.996;8.334;2024-02-21T13:37:40;4.30;;;1.52;;
19059;SDS011;9663;48.996;8.334;2024-02-21T13:40:06;4.93;;;1.30;;
19059;SDS011;9663;48.996;8.334;2024-02-21T13:42:38;4.20;;;1.35;;
19059;SDS011;9663;48.996;8.334;2024-02-21T13:45:05;4.20;;;1.30;;
19059;SDS011;9663;48.996;8.334;2024-02-21T13:47:32;3.72;;;1.10;;
19059;SDS011;9663;48.996;8.334;2024-02-21T13:49:58;3.75;;;1.33;;
19059;SDS011;9663;48.996;8.334;2024-02-21T13:52:24;4.43;;;1.20;;
19059;SDS011;9663;48.996;8.334;2024-02-21T13:54:53;4.35;;;1.30;;
19059;SDS011;9663;48.996;8.334;2024-02-21T13:57:18;3.03;;;1.13;;
19059;SDS011;9663;48.996;8.334;2024-02-21T13:59:44;4.90;;;1.23;;
19059;SDS011;9663;48.996;8.334;2024-02-21T14:02:10;4.18;;;1.15;;
19059;SDS011;9663;48.996;8.334;2024-02-21T14:04:35;4.43;;;1.30;;
19059;SDS011;9663;48.996;8.334;2024-02-21T14:07:01;3.30;;;1.10;;
19059;SDS011;9663;48.996;8.334;2024-02-21T14:09:27;5.07;;;1.40;;
19059;SDS011;9663;48.996;8.334;2024-02-21T14:11:58;4.43;;;1.20;;
19059;SDS011;9663;48.996;8.334;2024-02-21T14:14:23;3.20;;;1.20;;
19059;SDS011;9663;48.996;8.334;2024-02-21T14:16:49;3.53;;;1.10;;
19059;SDS011;9663;48.996;8.334;2024-02-21T14:19:15;4.13;;;1.00;;
19059;SDS011;9663;48.996;8.334;2024-02-21T14:21:41;3.40;;;1.15;;
19059;SDS011;9663;48.996;8.334;2024-02-21T14:24:06;2.58;;;1.00;;
19059;SDS011;9663;48.996;8.334;2024-02-21T14:26:33;5.53;;;1.52;;
19059;SDS011;9663;48.996;8.334;2024-02-21T14:29:00;3.72;;;1.00;;
19059;SDS011;9663;48.996;8.334;2024-02-21T14:31:28;3.75;;;1.42;;
19059;SDS011;9663;48.996;8.334;2024-02-21T14:33:56;3.85;;;1.38;;
19059;SDS011;9663;48.996;8.334;2024-02-21T14:36:22;3.25;;;1.10;;
19059;SDS011;9663;48.996;8.334;2024-02-21T14:38:49;3.95;;;1.35;;
19059;SDS011;9663;48.996;8.334;2024-02-21T14:41:17;4.55;;;1.10;;
19059;SDS011;9663;48.996;8.334;2024-02-21T14:43:43;3.58;;;1.15;;
19059;SDS011;9663;48.996;8.334;2024-02-21T14:46:09;3.50;;;1.10;;
19059;SDS011;9663;48.996;8.334;2024-02-21T14:48:37;2.90;;;1.00;;
19059;SDS011;9663;48.996;8.334;2024-02-21T14:51:03;4.03;;;1.13;;
19059;SDS011;9663;48.996;8.334;2024-02-21T14:53:29;2.80;;;1.13;;
19059;SDS011;9663;48.996;8.334;2024-02-21T14:55:56;5.15;;;1.60;;
19059;SDS011;9663;48.996;8.334;2024-02-21T14:58:23;4.15;;;1.40;;
19059;SDS011;9663;48.996;8.334;2024-02-21T15:00:49;3.70;;;1.20;;
19059;SDS011;9663;48.996;8.334;2024-02-21T15:03:18;2.75;;;1.17;;